createdAt,value
2018-02-01T00:01:47.102Z,10.70
2018-02-01T00:04:14.646Z,10.60
2018-02-01T00:06:42.222Z,10.70
2018-02-01T00:09:09.786Z,10.60
2018-02-01T00:11:37.361Z,10.60
2018-02-01T00:14:05.660Z,10.60
2018-02-01T00:16:33.230Z,10.60
2018-02-01T00:19:00.773Z,10.60
2018-02-01T00:21:29.097Z,10.50
2018-02-01T00:23:56.636Z,10.50
2018-02-01T00:26:24.299Z,10.50
2018-02-01T00:28:51.831Z,10.50
2018-02-01T00:31:20.313Z,10.50
2018-02-01T00:33:48.613Z,10.40
2018-02-01T00:36:16.167Z,10.40
2018-02-01T00:38:43.708Z,10.40
2018-02-01T00:41:12.016Z,10.40
2018-02-01T00:43:39.579Z,10.40
2018-02-01T00:46:07.116Z,10.40
2018-02-01T00:48:34.635Z,10.40
2018-02-01T00:51:02.201Z,10.50
2018-02-01T00:53:29.751Z,10.40
2018-02-01T00:55:57.301Z,10.50
2018-02-01T00:58:25.046Z,10.40
2018-02-01T01:00:52.600Z,10.40
2018-02-01T01:03:20.893Z,10.40
2018-02-01T01:05:48.985Z,10.40
2018-02-01T01:08:16.533Z,10.40
2018-02-01T01:10:44.106Z,10.40
2018-02-01T01:13:11.633Z,10.40
2018-02-01T01:15:39.643Z,10.40
2018-02-01T01:18:07.193Z,10.30
2018-02-01T01:20:34.744Z,10.30
2018-02-01T01:23:02.292Z,10.30
2018-02-01T01:25:30.655Z,10.30
2018-02-01T01:27:58.192Z,10.30
2018-02-01T01:30:26.495Z,10.30
2018-02-01T01:32:54.095Z,10.30
2018-02-01T01:35:21.620Z,10.30
2018-02-01T01:37:49.179Z,10.30
2018-02-01T01:40:16.708Z,10.30
2018-02-01T01:42:44.259Z,10.30
2018-02-01T01:45:11.816Z,10.30
2018-02-01T01:47:39.370Z,10.30
2018-02-01T01:50:06.913Z,10.30
2018-02-01T01:52:34.463Z,10.30
2018-02-01T01:55:02.003Z,10.20
2018-02-01T01:57:29.580Z,10.20
2018-02-01T01:59:57.135Z,10.20
2018-02-01T02:02:24.712Z,10.30
2018-02-01T02:04:52.242Z,10.30
2018-02-01T02:07:19.800Z,10.30
2018-02-01T02:09:47.333Z,10.30
2018-02-01T02:12:14.905Z,10.30
2018-02-01T02:14:43.206Z,10.30
2018-02-01T02:17:10.767Z,10.30
2018-02-01T02:19:39.334Z,10.30
2018-02-01T02:22:07.643Z,10.30
2018-02-01T02:24:35.173Z,10.30
2018-02-01T02:27:03.487Z,10.30
2018-02-01T02:29:31.013Z,10.30
2018-02-01T02:31:58.559Z,10.30
2018-02-01T02:34:26.864Z,10.20
2018-02-01T02:36:54.416Z,10.20
2018-02-01T02:39:21.992Z,10.20
2018-02-01T02:41:49.549Z,10.20
2018-02-01T02:44:17.128Z,10.20
2018-02-01T02:46:44.667Z,10.20
2018-02-01T02:49:12.220Z,10.20
2018-02-01T02:51:39.833Z,10.20
2018-02-01T02:54:07.383Z,10.20
2018-02-01T02:56:34.955Z,10.20
2018-02-01T02:59:02.505Z,10.20
2018-02-01T03:01:30.087Z,10.10
2018-02-01T03:03:57.625Z,10.10
2018-02-01T03:06:25.156Z,10.10
2018-02-01T03:08:52.710Z,10.10
2018-02-01T03:11:20.244Z,10.10
2018-02-01T03:13:47.828Z,10.10
2018-02-01T03:16:16.115Z,10.10
2018-02-01T03:18:43.680Z,10.10
2018-02-01T03:21:11.211Z,10.10
2018-02-01T03:23:39.537Z,10.10
2018-02-01T03:26:07.084Z,10.10
2018-02-01T03:28:34.992Z,10.10
2018-02-01T03:31:02.560Z,10.10
2018-02-01T03:33:30.133Z,10.00
2018-02-01T03:35:57.668Z,10.00
2018-02-01T03:38:25.214Z,10.00
2018-02-01T03:40:52.736Z,9.90
2018-02-01T03:43:20.413Z,9.90
2018-02-01T03:45:47.969Z,9.90
2018-02-01T03:48:15.488Z,9.90
2018-02-01T03:50:43.039Z,9.90
2018-02-01T03:53:10.564Z,9.80
2018-02-01T03:55:38.115Z,9.90
2018-02-01T03:58:05.672Z,9.80
2018-02-01T04:00:33.262Z,9.80
2018-02-01T04:03:00.802Z,9.70
2018-02-01T04:05:28.351Z,9.70
2018-02-01T04:07:55.865Z,9.70
2018-02-01T04:10:24.187Z,9.70
2018-02-01T04:12:51.787Z,9.60
2018-02-01T04:15:19.320Z,9.70
2018-02-01T04:17:46.885Z,9.70
2018-02-01T04:20:14.426Z,9.60
2018-02-01T04:22:42.116Z,9.50
2018-02-01T04:25:09.656Z,9.60
2018-02-01T04:27:37.218Z,9.50
2018-02-01T04:30:04.763Z,9.60
2018-02-01T04:32:32.457Z,9.60
2018-02-01T04:34:59.995Z,9.60
2018-02-01T04:37:27.560Z,9.60
2018-02-01T04:39:55.080Z,9.50
2018-02-01T04:42:22.689Z,9.50
2018-02-01T04:44:50.249Z,9.50
2018-02-01T04:47:17.771Z,9.50
2018-02-01T04:49:45.330Z,9.50
2018-02-01T04:52:12.852Z,9.50
2018-02-01T04:54:40.577Z,9.50
2018-02-01T04:57:08.103Z,9.50
2018-02-01T04:59:35.660Z,9.50
2018-02-01T05:02:03.220Z,9.40
2018-02-01T05:04:30.753Z,9.40
2018-02-01T05:06:58.275Z,9.40
2018-02-01T05:09:26.590Z,9.40
2018-02-01T05:11:54.120Z,9.40
2018-02-01T05:14:21.712Z,9.40
2018-02-01T05:16:49.248Z,9.40
2018-02-01T05:19:16.796Z,9.40
2018-02-01T05:21:45.096Z,9.30
2018-02-01T05:24:12.663Z,9.30
2018-02-01T05:26:40.224Z,9.30
2018-02-01T05:29:07.764Z,9.30
2018-02-01T05:31:35.500Z,9.30
2018-02-01T05:34:03.043Z,9.30
2018-02-01T05:36:30.628Z,9.30
2018-02-01T05:38:58.226Z,9.30
2018-02-01T05:41:25.810Z,9.30
2018-02-01T05:43:53.464Z,9.30
2018-02-01T05:46:21.014Z,9.30
2018-02-01T05:48:48.542Z,9.30
2018-02-01T05:51:17.045Z,9.20
2018-02-01T05:53:44.599Z,9.20
2018-02-01T05:56:12.179Z,9.20
2018-02-01T05:58:39.692Z,9.20
2018-02-01T06:01:07.265Z,9.10
2018-02-01T06:03:35.559Z,9.10
2018-02-01T06:06:03.135Z,9.10
2018-02-01T06:08:30.689Z,9.10
2018-02-01T06:10:59.012Z,9.10
2018-02-01T06:13:26.706Z,9.10
2018-02-01T06:15:54.285Z,9.10
2018-02-01T06:18:21.929Z,9.10
2018-02-01T06:20:49.470Z,9.10
2018-02-01T06:23:16.992Z,9.10
2018-02-01T06:25:44.545Z,9.10
2018-02-01T06:28:12.085Z,9.10
2018-02-01T06:30:39.625Z,9.00
2018-02-01T06:33:07.223Z,9.00
2018-02-01T06:35:34.755Z,9.00
2018-02-01T06:38:02.336Z,9.00
2018-02-01T06:40:29.875Z,9.00
2018-02-01T06:42:58.209Z,9.00
2018-02-01T06:45:25.737Z,9.00
2018-02-01T06:47:53.300Z,9.00
2018-02-01T06:50:20.855Z,8.90
2018-02-01T06:52:49.268Z,8.80
2018-02-01T06:55:16.803Z,8.80
2018-02-01T06:57:44.385Z,8.80
2018-02-01T07:00:12.135Z,8.80
2018-02-01T07:02:39.784Z,8.80
2018-02-01T07:05:08.072Z,8.70
2018-02-01T07:07:35.623Z,8.70
2018-02-01T07:10:03.896Z,8.70
2018-02-01T07:12:32.190Z,8.70
2018-02-01T07:14:59.746Z,8.70
2018-02-01T07:17:27.339Z,8.70
2018-02-01T07:19:54.899Z,8.70
2018-02-01T07:22:22.450Z,8.60
2018-02-01T07:24:50.772Z,8.60
2018-02-01T07:27:19.085Z,8.60
2018-02-01T07:29:46.649Z,8.50
2018-02-01T07:32:14.180Z,8.60
2018-02-01T07:34:42.495Z,8.50
2018-02-01T07:37:10.056Z,8.50
2018-02-01T07:39:37.652Z,8.50
2018-02-01T07:42:05.191Z,8.50
2018-02-01T07:44:32.728Z,8.50
2018-02-01T07:47:00.268Z,8.50
2018-02-01T07:49:28.604Z,8.50
2018-02-01T07:51:56.144Z,8.50
2018-02-01T07:54:24.427Z,8.50
2018-02-01T07:56:51.978Z,8.50
2018-02-01T07:59:19.496Z,8.50
2018-02-01T08:01:47.035Z,8.50
2018-02-01T08:04:14.553Z,8.40
2018-02-01T08:06:42.103Z,8.50
2018-02-01T08:09:09.640Z,8.40
2018-02-01T08:11:37.952Z,8.40
2018-02-01T08:14:05.471Z,8.40
2018-02-01T08:16:33.036Z,8.40
2018-02-01T08:19:00.567Z,8.40
2018-02-01T08:21:28.123Z,8.50
2018-02-01T08:23:55.657Z,8.40
2018-02-01T08:26:23.206Z,8.40
2018-02-01T08:28:50.752Z,8.40
2018-02-01T08:31:19.088Z,8.40
2018-02-01T08:33:46.627Z,8.40
2018-02-01T08:36:14.163Z,8.40
2018-02-01T08:38:41.739Z,8.40
2018-02-01T08:41:09.296Z,8.40
2018-02-01T08:43:36.876Z,8.40
2018-02-01T08:46:04.403Z,8.40
2018-02-01T08:48:32.737Z,8.30
2018-02-01T08:51:00.335Z,8.30
2018-02-01T08:53:28.745Z,8.30
2018-02-01T08:55:56.267Z,8.30
2018-02-01T08:58:24.568Z,8.30
2018-02-01T09:00:52.095Z,8.30
2018-02-01T09:03:19.637Z,8.30
2018-02-01T09:05:47.175Z,8.30
2018-02-01T09:08:14.728Z,8.30
2018-02-01T09:10:42.264Z,8.30
2018-02-01T09:13:09.812Z,8.20
2018-02-01T09:15:38.124Z,8.20
2018-02-01T09:18:05.668Z,8.20
2018-02-01T09:20:33.248Z,8.20
2018-02-01T09:23:00.811Z,8.20
2018-02-01T09:25:28.371Z,8.20
2018-02-01T09:27:55.917Z,8.20
2018-02-01T09:30:23.461Z,8.20
2018-02-01T09:32:51.755Z,8.10
2018-02-01T09:35:19.317Z,8.10
2018-02-01T09:37:46.852Z,8.10
2018-02-01T09:40:14.401Z,8.00
2018-02-01T09:42:41.919Z,8.00
2018-02-01T09:45:09.488Z,8.00
2018-02-01T09:47:37.017Z,8.00
2018-02-01T09:50:04.578Z,7.90
2018-02-01T09:52:32.100Z,7.90
2018-02-01T09:54:59.636Z,7.90
2018-02-01T09:57:27.172Z,7.90
2018-02-01T09:59:54.707Z,7.90
2018-02-01T10:02:23.000Z,7.80
2018-02-01T10:04:51.123Z,7.80
2018-02-01T10:07:18.651Z,7.80
2018-02-01T10:09:46.202Z,7.70
2018-02-01T10:12:13.743Z,7.80
2018-02-01T10:14:41.312Z,7.70
2018-02-01T10:17:08.855Z,7.60
2018-02-01T10:19:37.160Z,7.60
2018-02-01T10:22:04.708Z,7.60
2018-02-01T10:24:32.278Z,7.60
2018-02-01T10:26:59.816Z,7.60
2018-02-01T10:29:27.365Z,7.60
2018-02-01T10:31:55.703Z,7.60
2018-02-01T10:34:23.238Z,7.50
2018-02-01T10:36:50.776Z,7.60
2018-02-01T10:39:18.327Z,7.50
2018-02-01T10:41:46.654Z,7.60
2018-02-01T10:44:14.166Z,7.50
2018-02-01T10:46:42.496Z,7.50
2018-02-01T10:49:10.059Z,7.50
2018-02-01T10:51:37.603Z,7.50
2018-02-01T10:54:05.138Z,7.50
2018-02-01T10:56:32.728Z,7.40
2018-02-01T10:59:00.251Z,7.40
2018-02-01T11:01:28.567Z,7.30
2018-02-01T11:03:56.093Z,7.30
2018-02-01T11:06:24.429Z,7.30
2018-02-01T11:08:51.959Z,7.30
2018-02-01T11:11:19.523Z,7.30
2018-02-01T11:13:47.045Z,7.20
2018-02-01T11:16:15.375Z,7.20
2018-02-01T11:18:42.935Z,7.10
2018-02-01T11:21:10.461Z,7.20
2018-02-01T11:23:38.007Z,7.10
2018-02-01T11:26:06.312Z,7.10
2018-02-01T11:28:33.920Z,7.10
2018-02-01T11:31:01.454Z,7.10
2018-02-01T11:33:28.994Z,7.00
2018-02-01T11:35:56.519Z,7.00
2018-02-01T11:38:24.083Z,6.90
2018-02-01T11:40:52.365Z,6.90
2018-02-01T11:43:20.675Z,6.90
2018-02-01T11:45:49.795Z,6.90
2018-02-01T11:48:17.316Z,6.80
2018-02-01T11:50:44.858Z,6.90
2018-02-01T11:53:13.139Z,6.80
2018-02-01T11:55:41.439Z,6.80
2018-02-01T11:58:08.978Z,6.70
2018-02-01T12:00:37.288Z,6.70
2018-02-01T12:03:04.804Z,6.70
2018-02-01T12:05:32.342Z,6.70
2018-02-01T12:07:59.866Z,6.60
2018-02-01T12:10:27.450Z,6.60
2018-02-01T12:12:54.969Z,6.60
2018-02-01T12:15:22.499Z,6.60
2018-02-01T12:17:50.035Z,6.60
2018-02-01T12:20:17.587Z,6.60
2018-02-01T12:22:45.115Z,6.60
2018-02-01T12:25:12.641Z,6.60
2018-02-01T12:27:40.187Z,6.60
2018-02-01T12:30:07.703Z,6.60
2018-02-01T12:32:35.264Z,6.60
2018-02-01T12:35:02.796Z,6.60
2018-02-01T12:37:31.107Z,6.60
2018-02-01T12:39:58.631Z,6.60
2018-02-01T12:42:26.936Z,6.60
2018-02-01T12:44:54.461Z,6.60
2018-02-01T12:47:21.996Z,6.60
2018-02-01T12:49:49.535Z,6.60
2018-02-01T12:52:17.086Z,6.50
2018-02-01T12:54:44.611Z,6.50
2018-02-01T12:57:12.917Z,6.50
2018-02-01T12:59:40.482Z,6.50
2018-02-01T13:02:08.036Z,6.50
2018-02-01T13:04:35.607Z,6.50
2018-02-01T13:07:03.164Z,6.50
2018-02-01T13:09:30.685Z,6.50
2018-02-01T13:11:58.247Z,6.50
2018-02-01T13:14:25.788Z,6.50
2018-02-01T13:16:53.375Z,6.50
2018-02-01T13:19:20.897Z,6.50
2018-02-01T13:21:48.429Z,6.50
2018-02-01T13:24:15.968Z,6.50
2018-02-01T13:26:43.514Z,6.50
2018-02-01T13:29:11.824Z,6.50
2018-02-01T13:31:39.348Z,6.40
2018-02-01T13:34:06.907Z,6.50
2018-02-01T13:36:34.447Z,6.40
2018-02-01T13:39:01.992Z,6.40
2018-02-01T13:41:29.538Z,6.40
2018-02-01T13:43:57.083Z,6.40
2018-02-01T13:46:24.620Z,6.40
2018-02-01T13:48:52.924Z,6.30
2018-02-01T13:51:20.460Z,6.30
2018-02-01T13:53:48.055Z,6.30
2018-02-01T13:56:15.585Z,6.30
2018-02-01T13:58:43.883Z,6.30
2018-02-01T14:01:11.414Z,6.30
2018-02-01T14:03:39.728Z,6.30
2018-02-01T14:06:07.247Z,6.30
2018-02-01T14:08:34.794Z,6.30
2018-02-01T14:11:02.311Z,6.30
2018-02-01T14:13:29.872Z,6.30
2018-02-01T14:15:57.401Z,6.30
2018-02-01T14:18:25.686Z,6.30
2018-02-01T14:20:53.247Z,6.30
2018-02-01T14:23:21.527Z,6.30
2018-02-01T14:25:49.829Z,6.30
2018-02-01T14:28:17.352Z,6.30
2018-02-01T14:30:45.665Z,6.30
2018-02-01T14:33:13.255Z,6.30
2018-02-01T14:35:40.847Z,6.30
2018-02-01T14:38:09.125Z,6.30
2018-02-01T14:40:36.688Z,6.30
2018-02-01T14:43:04.974Z,6.40
2018-02-01T14:45:33.284Z,6.30
2018-02-01T14:48:00.832Z,6.40
2018-02-01T14:50:28.364Z,6.40
2018-02-01T14:52:56.678Z,6.40
2018-02-01T14:55:24.194Z,6.30
2018-02-01T14:57:51.732Z,6.40
2018-02-01T15:00:19.269Z,6.40
2018-02-01T15:02:46.814Z,6.40
2018-02-01T15:05:14.332Z,6.40
2018-02-01T15:07:41.888Z,6.40
2018-02-01T15:10:09.426Z,6.40
2018-02-01T15:12:36.987Z,6.40
2018-02-01T15:15:04.503Z,6.40
2018-02-01T15:17:32.035Z,6.50
2018-02-01T15:19:59.567Z,6.50
2018-02-01T15:22:27.116Z,6.50
2018-02-01T15:24:54.637Z,6.50
2018-02-01T15:27:22.944Z,6.50
2018-02-01T15:29:50.466Z,6.50
2018-02-01T15:32:18.783Z,6.40
2018-02-01T15:34:46.322Z,6.40
2018-02-01T15:37:14.619Z,6.40
2018-02-01T15:39:42.196Z,6.40
2018-02-01T15:42:09.730Z,6.50
2018-02-01T15:44:37.272Z,6.40
2018-02-01T15:47:05.686Z,6.40
2018-02-01T15:49:34.008Z,6.40
2018-02-01T15:52:02.339Z,6.50
2018-02-01T15:54:29.879Z,6.40
2018-02-01T15:56:58.184Z,6.40
2018-02-01T15:59:25.753Z,6.40
2018-02-01T16:01:53.283Z,6.40
2018-02-01T16:04:20.824Z,6.40
2018-02-01T16:06:49.133Z,6.40
2018-02-01T16:09:16.702Z,6.40
2018-02-01T16:11:45.009Z,6.40
2018-02-01T16:14:12.551Z,6.40
2018-02-01T16:16:40.087Z,6.40
2018-02-01T16:19:07.640Z,6.40
2018-02-01T16:21:35.193Z,6.40
2018-02-01T16:24:02.749Z,6.40
2018-02-01T16:26:31.100Z,6.40
2018-02-01T16:28:58.639Z,6.30
2018-02-01T16:31:26.190Z,6.30
2018-02-01T16:33:53.727Z,6.30
2018-02-01T16:36:22.115Z,6.30
2018-02-01T16:38:49.689Z,6.30
2018-02-01T16:41:17.218Z,6.30
2018-02-01T16:43:44.775Z,6.30
2018-02-01T16:46:13.101Z,6.30
2018-02-01T16:48:40.662Z,6.30
2018-02-01T16:51:08.194Z,6.30
2018-02-01T16:53:35.753Z,6.30
2018-02-01T16:56:03.280Z,6.30
2018-02-01T16:58:31.579Z,6.30
2018-02-01T17:00:59.132Z,6.20
2018-02-01T17:03:26.695Z,6.20
2018-02-01T17:05:55.003Z,6.20
2018-02-01T17:08:23.320Z,6.20
2018-02-01T17:10:50.847Z,6.20
2018-02-01T17:13:19.166Z,6.20
2018-02-01T17:15:46.683Z,6.20
2018-02-01T17:18:14.269Z,6.10
2018-02-01T17:20:41.797Z,6.10
2018-02-01T17:23:09.404Z,6.10
2018-02-01T17:25:36.943Z,6.10
2018-02-01T17:28:04.496Z,6.10
2018-02-01T17:30:32.019Z,6.10
2018-02-01T17:32:59.539Z,6.10
2018-02-01T17:35:27.091Z,6.00
2018-02-01T17:37:54.607Z,6.00
2018-02-01T17:40:22.152Z,6.00
2018-02-01T17:42:50.443Z,6.00
2018-02-01T17:45:18.003Z,6.00
2018-02-01T17:47:45.523Z,5.90
2018-02-01T17:50:13.051Z,6.00
2018-02-01T17:52:40.580Z,5.90
2018-02-01T17:55:08.141Z,5.90
2018-02-01T17:57:35.685Z,5.90
2018-02-01T18:00:04.049Z,5.80
2018-02-01T18:02:31.605Z,5.80
2018-02-01T18:04:59.125Z,5.80
2018-02-01T18:07:26.677Z,5.80
2018-02-01T18:09:54.271Z,5.80
2018-02-01T18:12:21.830Z,5.80
2018-02-01T18:14:49.366Z,5.80
2018-02-01T18:17:16.991Z,5.80
2018-02-01T18:19:45.297Z,5.80
2018-02-01T18:22:12.844Z,5.80
2018-02-01T18:24:40.380Z,5.70
2018-02-01T18:27:07.941Z,5.80
2018-02-01T18:29:36.280Z,5.70
2018-02-01T18:32:04.863Z,5.70
2018-02-01T18:34:32.401Z,5.80
2018-02-01T18:36:59.935Z,5.70
2018-02-01T18:39:27.576Z,5.70
2018-02-01T18:41:55.190Z,5.70
2018-02-01T18:44:22.719Z,5.70
2018-02-01T18:46:51.048Z,5.70
2018-02-01T18:49:18.590Z,5.70
2018-02-01T18:51:46.145Z,5.80
2018-02-01T18:54:13.685Z,5.70
2018-02-01T18:56:41.253Z,5.70
2018-02-01T18:59:08.805Z,5.80
2018-02-01T19:01:37.098Z,5.70
2018-02-01T19:04:04.718Z,5.70
2018-02-01T19:06:32.255Z,5.70
2018-02-01T19:08:59.855Z,5.70
2018-02-01T19:11:27.443Z,5.70
2018-02-01T19:13:55.256Z,5.70
2018-02-01T19:16:22.798Z,5.70
2018-02-01T19:18:50.359Z,5.70
2018-02-01T19:21:17.961Z,5.60
2018-02-01T19:23:46.276Z,5.60
2018-02-01T19:26:13.852Z,5.60
2018-02-01T19:28:41.589Z,5.60
2018-02-01T19:31:09.610Z,5.60
2018-02-01T19:33:37.169Z,5.60
2018-02-01T19:36:04.683Z,5.60
2018-02-01T19:38:33.198Z,5.60
2018-02-01T19:41:00.773Z,5.60
2018-02-01T19:43:28.312Z,5.60
2018-02-01T19:45:55.899Z,5.60
2018-02-01T19:48:23.476Z,5.60
2018-02-01T19:50:50.968Z,5.60
2018-02-01T19:53:18.686Z,5.60
2018-02-01T19:55:46.246Z,5.60
2018-02-01T19:58:13.763Z,5.50
2018-02-01T20:00:41.291Z,5.50
2018-02-01T20:03:08.904Z,5.50
2018-02-01T20:05:36.490Z,5.50
2018-02-01T20:08:04.352Z,5.50
2018-02-01T20:10:31.980Z,5.50
2018-02-01T20:12:59.529Z,5.50
2018-02-01T20:15:27.139Z,5.50
2018-02-01T20:17:54.785Z,5.50
2018-02-01T20:20:22.372Z,5.50
2018-02-01T20:22:49.987Z,5.50
2018-02-01T20:25:17.574Z,5.50
2018-02-01T20:27:45.099Z,5.50
2018-02-01T20:30:12.664Z,5.40
2018-02-01T20:32:40.191Z,5.40
2018-02-01T20:35:07.788Z,5.40
2018-02-01T20:37:35.384Z,5.40
2018-02-01T20:40:02.920Z,5.40
2018-02-01T20:42:30.478Z,5.40
2018-02-01T20:44:58.218Z,5.40
2018-02-01T20:47:25.768Z,5.40
2018-02-01T20:49:53.358Z,5.40
2018-02-01T20:52:20.922Z,5.30
2018-02-01T20:54:48.536Z,5.30
2018-02-01T20:57:16.110Z,5.30
2018-02-01T20:59:43.702Z,5.30
2018-02-01T21:02:11.227Z,5.40
2018-02-01T21:04:38.817Z,5.30
2018-02-01T21:07:06.388Z,5.30
2018-02-01T21:09:34.229Z,5.30
2018-02-01T21:12:01.848Z,5.30
2018-02-01T21:14:29.465Z,5.30
2018-02-01T21:16:57.791Z,5.30
2018-02-01T21:19:25.365Z,5.30
2018-02-01T21:21:52.961Z,5.30
2018-02-01T21:24:21.297Z,5.30
2018-02-01T21:26:48.846Z,5.30
2018-02-01T21:29:16.416Z,5.30
2018-02-01T21:31:44.046Z,5.30
2018-02-01T21:34:11.563Z,5.30
2018-02-01T21:36:40.090Z,5.30
2018-02-01T21:39:08.389Z,5.20
2018-02-01T21:41:35.976Z,5.20
2018-02-01T21:44:03.559Z,5.20
2018-02-01T21:46:31.913Z,5.20
2018-02-01T21:48:59.510Z,5.20
2018-02-01T21:51:27.814Z,5.20
2018-02-01T21:53:55.361Z,5.20
2018-02-01T21:56:22.908Z,5.20
2018-02-01T21:58:51.247Z,5.20
2018-02-01T22:01:18.774Z,5.20
2018-02-01T22:03:46.351Z,5.20
2018-02-01T22:06:13.929Z,5.20
2018-02-01T22:08:41.528Z,5.20
2018-02-01T22:11:09.874Z,5.20
2018-02-01T22:13:37.439Z,5.20
2018-02-01T22:16:05.017Z,5.20
2018-02-01T22:18:32.593Z,5.20
2018-02-01T22:21:00.120Z,5.20
2018-02-01T22:23:27.661Z,5.10
2018-02-01T22:25:55.232Z,5.10
2018-02-01T22:28:22.832Z,5.10
2018-02-01T22:30:51.127Z,5.10
2018-02-01T22:33:18.685Z,5.10
2018-02-01T22:35:46.220Z,5.10
2018-02-01T22:38:14.535Z,5.10
2018-02-01T22:40:42.070Z,5.10
2018-02-01T22:43:09.624Z,5.10
2018-02-01T22:45:37.976Z,5.10
2018-02-01T22:48:05.555Z,5.10
2018-02-01T22:50:33.124Z,5.10
2018-02-01T22:53:01.469Z,5.10
2018-02-01T22:55:28.996Z,5.10
2018-02-01T22:57:56.534Z,5.10
2018-02-01T23:00:24.855Z,5.10
2018-02-01T23:02:52.384Z,5.10
2018-02-01T23:05:19.923Z,5.10
2018-02-01T23:07:48.237Z,5.10
2018-02-01T23:10:15.772Z,5.10
2018-02-01T23:12:43.347Z,5.10
2018-02-01T23:15:10.901Z,5.10
2018-02-01T23:17:39.198Z,5.10
2018-02-01T23:20:06.779Z,5.10
2018-02-01T23:22:34.291Z,5.10
2018-02-01T23:25:02.606Z,5.10
2018-02-01T23:27:30.140Z,5.10
2018-02-01T23:29:58.446Z,5.10
2018-02-01T23:32:25.963Z,5.10
2018-02-01T23:34:54.280Z,5.10
2018-02-01T23:37:21.808Z,5.10
2018-02-01T23:39:50.121Z,5.10
2018-02-01T23:42:17.640Z,5.10
2018-02-01T23:44:45.205Z,5.10
2018-02-01T23:47:13.495Z,5.10
2018-02-01T23:49:41.035Z,5.10
2018-02-01T23:52:09.322Z,5.10
2018-02-01T23:54:36.877Z,5.10
2018-02-01T23:57:05.186Z,5.10
2018-02-01T23:59:32.708Z,5.00
